sensor_id;sensor_type;location;lat;lon;timestamp;pressure;altitude;pressure_sealevel;temperature;humidity
30856;BME280;17570;0.000;0.000;2023-02-28T00:00:40;97593.19;;;16.08;44.60
30856;BME280;17570;0.000;0.000;2023-02-28T00:03:08;97595.69;;;16.10;44.78
30856;BME280;17570;0.000;0.000;2023-02-28T00:05:35;97598.84;;;16.03;44.73
30856;BME280;17570;0.000;0.000;2023-02-28T00:08:02;97611.67;;;16.06;44.71
30856;BME280;17570;0.000;0.000;2023-02-28T00:10:30;97622.30;;;16.05;44.75
30856;BME280;17570;0.000;0.000;2023-02-28T00:13:06;97618.70;;;16.06;44.65
30856;BME280;17570;0.000;0.000;2023-02-28T00:15:30;97615.27;;;16.05;44.76
30856;BME280;17570;0.000;0.000;2023-02-28T00:17:58;97618.97;;;16.03;44.78
30856;BME280;17570;0.000;0.000;2023-02-28T00:20:25;97624.09;;;16.04;44.69
30856;BME280;17570;0.000;0.000;2023-02-28T00:22:53;97625.73;;;16.05;44.61
30856;BME280;17570;0.000;0.000;2023-02-28T00:25:23;97623.79;;;16.07;44.53
30856;BME280;17570;0.000;0.000;2023-02-28T00:27:50;97618.15;;;16.02;44.69
30856;BME280;17570;0.000;0.000;2023-02-28T00:30:19;97631.24;;;16.02;44.69
30856;BME280;17570;0.000;0.000;2023-02-28T00:32:46;97617.33;;;16.02;44.65
30856;BME280;17570;0.000;0.000;2023-02-28T00:35:14;97622.83;;;15.99;44.74
30856;BME280;17570;0.000;0.000;2023-02-28T00:37:42;97614.86;;;16.00;44.64
30856;BME280;17570;0.000;0.000;2023-02-28T00:40:10;97634.42;;;15.96;44.69
30856;BME280;17570;0.000;0.000;2023-02-28T00:42:38;97645.17;;;15.93;44.86
30856;BME280;17570;0.000;0.000;2023-02-28T00:45:07;97644.08;;;15.96;44.77
30856;BME280;17570;0.000;0.000;2023-02-28T00:47:36;97636.89;;;15.98;44.83
30856;BME280;17570;0.000;0.000;2023-02-28T00:50:04;97638.55;;;15.99;44.83
30856;BME280;17570;0.000;0.000;2023-02-28T00:52:31;97639.39;;;15.99;44.79
30856;BME280;17570;0.000;0.000;2023-02-28T00:54:59;97647.25;;;15.99;45.03
30856;BME280;17570;0.000;0.000;2023-02-28T00:57:26;97640.22;;;16.00;44.93
30856;BME280;17570;0.000;0.000;2023-02-28T00:59:54;97646.40;;;15.99;45.04
30856;BME280;17570;0.000;0.000;2023-02-28T01:02:22;97648.34;;;15.97;45.03
30856;BME280;17570;0.000;0.000;2023-02-28T01:04:51;97643.38;;;15.94;45.11
30856;BME280;17570;0.000;0.000;2023-02-28T01:07:18;97646.81;;;15.94;45.20
30856;BME280;17570;0.000;0.000;2023-02-28T01:09:46;97655.94;;;15.90;45.17
30856;BME280;17570;0.000;0.000;2023-02-28T01:12:13;97661.44;;;15.87;45.23
30856;BME280;17570;0.000;0.000;2023-02-28T01:14:41;97669.03;;;15.90;45.25
30856;BME280;17570;0.000;0.000;2023-02-28T01:17:09;97681.14;;;15.91;45.20
30856;BME280;17570;0.000;0.000;2023-02-28T01:19:36;97690.80;;;15.91;45.29
30856;BME280;17570;0.000;0.000;2023-02-28T01:22:04;97689.56;;;15.95;45.12
30856;BME280;17570;0.000;0.000;2023-02-28T01:24:32;97685.82;;;15.88;45.40
30856;BME280;17570;0.000;0.000;2023-02-28T01:26:59;97676.84;;;15.80;45.79
30856;BME280;17570;0.000;0.000;2023-02-28T01:29:27;97664.62;;;15.81;45.84
30856;BME280;17570;0.000;0.000;2023-02-28T01:31:54;97647.64;;;15.75;45.93
30856;BME280;17570;0.000;0.000;2023-02-28T01:34:23;97639.79;;;15.75;45.94
30856;BME280;17570;0.000;0.000;2023-02-28T01:36:50;97641.73;;;15.73;46.04
30856;BME280;17570;0.000;0.000;2023-02-28T01:39:18;97658.27;;;15.74;46.04
30856;BME280;17570;0.000;0.000;2023-02-28T01:41:46;97664.31;;;15.74;46.13
30856;BME280;17570;0.000;0.000;2023-02-28T01:46:59;97673.29;;;15.72;45.93
30856;BME280;17570;0.000;0.000;2023-02-28T01:49:28;97675.30;;;15.59;45.95
30856;BME280;17570;0.000;0.000;2023-02-28T01:51:56;97663.08;;;15.69;45.77
30856;BME280;17570;0.000;0.000;2023-02-28T01:54:31;97657.84;;;15.69;45.90
30856;BME280;17570;0.000;0.000;2023-02-28T01:56:54;97656.20;;;15.68;46.04
30856;BME280;17570;0.000;0.000;2023-02-28T01:59:25;97645.84;;;15.66;46.16
30856;BME280;17570;0.000;0.000;2023-02-28T02:01:52;97639.38;;;15.70;46.13
30856;BME280;17570;0.000;0.000;2023-02-28T02:04:20;97639.53;;;15.69;46.08
30856;BME280;17570;0.000;0.000;2023-02-28T02:06:48;97633.32;;;15.70;46.06
30856;BME280;17570;0.000;0.000;2023-02-28T02:09:16;97625.62;;;15.68;46.09
30856;BME280;17570;0.000;0.000;2023-02-28T02:11:44;97611.83;;;15.66;46.07
30856;BME280;17570;0.000;0.000;2023-02-28T02:17:15;97601.06;;;15.60;46.18
30856;BME280;17570;0.000;0.000;2023-02-28T02:25:03;97587.27;;;15.48;46.54
30856;BME280;17570;0.000;0.000;2023-02-28T02:30:18;97598.04;;;15.54;46.19
30856;BME280;17570;0.000;0.000;2023-02-28T02:35:16;97589.89;;;15.48;46.37
30856;BME280;17570;0.000;0.000;2023-02-28T02:37:48;97591.16;;;15.53;46.16
30856;BME280;17570;0.000;0.000;2023-02-28T02:40:27;97590.04;;;15.56;46.02
30856;BME280;17570;0.000;0.000;2023-02-28T02:42:51;97606.86;;;15.53;46.18
30856;BME280;17570;0.000;0.000;2023-02-28T02:45:22;97602.45;;;15.54;46.23
30856;BME280;17570;0.000;0.000;2023-02-28T02:47:50;97597.48;;;15.51;46.12
30856;BME280;17570;0.000;0.000;2023-02-28T02:50:29;97606.03;;;15.53;46.01
30856;BME280;17570;0.000;0.000;2023-02-28T02:52:51;97601.63;;;15.53;46.08
30856;BME280;17570;0.000;0.000;2023-02-28T02:55:20;97606.15;;;15.51;46.15
30856;BME280;17570;0.000;0.000;2023-02-28T02:57:58;97611.38;;;15.51;46.08
30856;BME280;17570;0.000;0.000;2023-02-28T03:00:26;97635.90;;;15.50;46.18
30856;BME280;17570;0.000;0.000;2023-02-28T03:02:52;97634.81;;;15.53;46.28
30856;BME280;17570;0.000;0.000;2023-02-28T03:05:26;97630.66;;;15.50;46.11
30856;BME280;17570;0.000;0.000;2023-02-28T03:07:49;97632.87;;;15.45;46.17
30856;BME280;17570;0.000;0.000;2023-02-28T03:10:30;97617.73;;;15.49;46.22
30856;BME280;17570;0.000;0.000;2023-02-28T03:13:10;97620.20;;;15.50;46.03
30856;BME280;17570;0.000;0.000;2023-02-28T03:15:36;97621.16;;;15.40;46.25
30856;BME280;17570;0.000;0.000;2023-02-28T03:20:35;97626.39;;;15.40;46.19
30856;BME280;17570;0.000;0.000;2023-02-28T03:23:23;97635.48;;;15.45;46.01
30856;BME280;17570;0.000;0.000;2023-02-28T03:25:52;97629.95;;;15.39;46.23
30856;BME280;17570;0.000;0.000;2023-02-28T03:30:57;97618.53;;;15.30;46.33
30856;BME280;17570;0.000;0.000;2023-02-28T03:33:31;97619.47;;;15.29;46.29
30856;BME280;17570;0.000;0.000;2023-02-28T03:35:58;97628.17;;;15.29;46.23
30856;BME280;17570;0.000;0.000;2023-02-28T03:40:57;97628.03;;;15.31;46.07
30856;BME280;17570;0.000;0.000;2023-02-28T03:43:25;97632.44;;;15.30;46.20
30856;BME280;17570;0.000;0.000;2023-02-28T03:45:53;97631.61;;;15.30;46.24
30856;BME280;17570;0.000;0.000;2023-02-28T03:48:24;97630.64;;;15.31;46.04
30856;BME280;17570;0.000;0.000;2023-02-28T03:50:52;97640.84;;;15.34;45.85
30856;BME280;17570;0.000;0.000;2023-02-28T03:53:20;97634.65;;;15.35;45.82
30856;BME280;17570;0.000;0.000;2023-02-28T03:55:59;97634.91;;;15.32;46.11
30856;BME280;17570;0.000;0.000;2023-02-28T04:01:09;97644.29;;;15.35;46.09
30856;BME280;17570;0.000;0.000;2023-02-28T04:03:37;97643.41;;;15.24;46.25
30856;BME280;17570;0.000;0.000;2023-02-28T04:06:06;97650.03;;;15.28;46.10
30856;BME280;17570;0.000;0.000;2023-02-28T04:08:33;97657.88;;;15.28;46.02
30856;BME280;17570;0.000;0.000;2023-02-28T04:11:02;97649.78;;;15.31;45.95
30856;BME280;17570;0.000;0.000;2023-02-28T04:13:30;97653.22;;;15.32;45.78
30856;BME280;17570;0.000;0.000;2023-02-28T04:15:58;97649.63;;;15.33;45.83
30856;BME280;17570;0.000;0.000;2023-02-28T04:18:26;97660.09;;;15.33;45.67
30856;BME280;17570;0.000;0.000;2023-02-28T04:20:53;97658.45;;;15.32;45.58
30856;BME280;17570;0.000;0.000;2023-02-28T04:23:21;97662.86;;;15.31;45.74
30856;BME280;17570;0.000;0.000;2023-02-28T04:25:48;97665.62;;;15.30;45.83
30856;BME280;17570;0.000;0.000;2023-02-28T04:28:17;97660.50;;;15.28;45.74
30856;BME280;17570;0.000;0.000;2023-02-28T04:30:44;97664.91;;;15.28;45.71
30856;BME280;17570;0.000;0.000;2023-02-28T04:33:12;97663.26;;;15.27;45.79
30856;BME280;17570;0.000;0.000;2023-02-28T04:35:39;97666.27;;;15.22;46.00
30856;BME280;17570;0.000;0.000;2023-02-28T04:38:07;97664.34;;;15.24;45.82
30856;BME280;17570;0.000;0.000;2023-02-28T04:40:35;97661.44;;;15.18;46.01
30856;BME280;17570;0.000;0.000;2023-02-28T04:43:02;97669.29;;;15.18;46.25
30856;BME280;17570;0.000;0.000;2023-02-28T04:45:30;97675.34;;;15.18;46.05
30856;BME280;17570;0.000;0.000;2023-02-28T04:47:59;97674.77;;;15.15;46.18
30856;BME280;17570;0.000;0.000;2023-02-28T04:50:26;97683.59;;;15.14;46.47
30856;BME280;17570;0.000;0.000;2023-02-28T04:52:54;97674.27;;;15.21;45.94
30856;BME280;17570;0.000;0.000;2023-02-28T04:55:21;97675.66;;;15.25;45.90
30856;BME280;17570;0.000;0.000;2023-02-28T04:57:49;97679.20;;;15.24;46.14
30856;BME280;17570;0.000;0.000;2023-02-28T05:00:16;97683.19;;;15.18;46.34
30856;BME280;17570;0.000;0.000;2023-02-28T05:02:44;97684.16;;;15.17;46.35
30856;BME280;17570;0.000;0.000;2023-02-28T05:05:11;97682.62;;;15.15;46.46
30856;BME280;17570;0.000;0.000;2023-02-28T05:07:40;97691.17;;;15.17;46.56
30856;BME280;17570;0.000;0.000;2023-02-28T05:10:08;97692.40;;;15.13;46.78
30856;BME280;17570;0.000;0.000;2023-02-28T05:12:36;97685.23;;;15.15;46.70
30856;BME280;17570;0.000;0.000;2023-02-28T05:15:05;97685.23;;;15.15;46.78
30856;BME280;17570;0.000;0.000;2023-02-28T05:17:32;97692.25;;;15.14;46.67
30856;BME280;17570;0.000;0.000;2023-02-28T05:20:00;97688.13;;;15.12;46.92
30856;BME280;17570;0.000;0.000;2023-02-28T05:22:27;97696.41;;;15.17;46.77
30856;BME280;17570;0.000;0.000;2023-02-28T05:24:55;97691.60;;;15.22;46.61
30856;BME280;17570;0.000;0.000;2023-02-28T05:27:22;97693.50;;;15.20;46.74
30856;BME280;17570;0.000;0.000;2023-02-28T05:29:51;97701.49;;;15.18;46.82
30856;BME280;17570;0.000;0.000;2023-02-28T05:32:18;97699.98;;;15.16;46.90
30856;BME280;17570;0.000;0.000;2023-02-28T05:34:46;97709.20;;;15.20;46.74
30856;BME280;17570;0.000;0.000;2023-02-28T05:37:13;97709.34;;;15.18;46.78
30856;BME280;17570;0.000;0.000;2023-02-28T05:39:42;97716.36;;;15.18;46.86
30856;BME280;17570;0.000;0.000;2023-02-28T05:42:09;97711.12;;;15.18;47.00
30856;BME280;17570;0.000;0.000;2023-02-28T05:44:37;97713.89;;;15.16;47.04
30856;BME280;17570;0.000;0.000;2023-02-28T05:47:04;97706.72;;;15.18;46.97
30856;BME280;17570;0.000;0.000;2023-02-28T05:49:32;97708.38;;;15.19;46.75
30856;BME280;17570;0.000;0.000;2023-02-28T05:51:59;97715.28;;;15.20;46.83
30856;BME280;17570;0.000;0.000;2023-02-28T05:54:27;97717.04;;;15.20;46.84
30856;BME280;17570;0.000;0.000;2023-02-28T05:56:54;97717.19;;;15.18;46.77
30856;BME280;17570;0.000;0.000;2023-02-28T05:59:21;97722.27;;;15.20;46.82
30856;BME280;17570;0.000;0.000;2023-02-28T06:01:49;97719.66;;;15.20;47.00
30856;BME280;17570;0.000;0.000;2023-02-28T06:04:18;97719.66;;;15.20;47.11
30856;BME280;17570;0.000;0.000;2023-02-28T06:06:46;97720.11;;;15.25;46.87
30856;BME280;17570;0.000;0.000;2023-02-28T06:09:14;97723.55;;;15.25;46.88
30856;BME280;17570;0.000;0.000;2023-02-28T06:11:42;97727.11;;;15.24;46.93
30856;BME280;17570;0.000;0.000;2023-02-28T06:14:14;97719.06;;;15.47;48.27
30856;BME280;17570;0.000;0.000;2023-02-28T06:16:41;97728.86;;;15.54;48.33
30856;BME280;17570;0.000;0.000;2023-02-28T06:19:10;97725.00;;;15.49;47.97
30856;BME280;17570;0.000;0.000;2023-02-28T06:21:38;97731.88;;;15.50;47.59
30856;BME280;17570;0.000;0.000;2023-02-28T06:24:05;97729.92;;;15.42;47.25
30856;BME280;17570;0.000;0.000;2023-02-28T06:26:33;97735.16;;;15.42;47.22
30856;BME280;17570;0.000;0.000;2023-02-28T06:29:00;97735.16;;;15.42;47.04
30856;BME280;17570;0.000;0.000;2023-02-28T06:31:28;97732.42;;;15.44;46.80
30856;BME280;17570;0.000;0.000;2023-02-28T06:33:55;97736.00;;;15.52;46.74
30856;BME280;17570;0.000;0.000;2023-02-28T06:36:23;97734.90;;;15.45;46.71
30856;BME280;17570;0.000;0.000;2023-02-28T06:38:50;97732.56;;;15.52;46.04
30856;BME280;17570;0.000;0.000;2023-02-28T06:41:21;97730.09;;;15.50;45.89
30856;BME280;17570;0.000;0.000;2023-02-28T06:43:48;97734.19;;;15.43;46.21
30856;BME280;17570;0.000;0.000;2023-02-28T06:46:16;97735.30;;;15.41;46.51
30856;BME280;17570;0.000;0.000;2023-02-28T06:48:44;97734.64;;;15.48;45.92
30856;BME280;17570;0.000;0.000;2023-02-28T06:51:13;97734.50;;;15.50;45.69
30856;BME280;17570;0.000;0.000;2023-02-28T06:53:41;97743.74;;;15.54;45.45
30856;BME280;17570;0.000;0.000;2023-02-28T06:56:12;97739.88;;;15.48;45.72
30856;BME280;17570;0.000;0.000;2023-02-28T06:58:40;97731.34;;;15.56;45.34
30856;BME280;17570;0.000;0.000;2023-02-28T07:01:08;97738.22;;;15.57;45.53
30856;BME280;17570;0.000;0.000;2023-02-28T07:03:35;97739.75;;;15.60;45.41
30856;BME280;17570;0.000;0.000;2023-02-28T07:06:04;97740.83;;;15.57;45.46
30856;BME280;17570;0.000;0.000;2023-02-28T07:08:32;97740.16;;;15.55;45.80
30856;BME280;17570;0.000;0.000;2023-02-28T07:11:00;97745.25;;;15.56;45.50
30856;BME280;17570;0.000;0.000;2023-02-28T07:13:28;97742.92;;;15.53;45.94
30856;BME280;17570;0.000;0.000;2023-02-28T07:15:56;97733.27;;;15.54;46.05
30856;BME280;17570;0.000;0.000;2023-02-28T07:18:24;97740.72;;;15.59;45.92
30856;BME280;17570;0.000;0.000;2023-02-28T07:20:52;97733.55;;;15.61;45.89
30856;BME280;17570;0.000;0.000;2023-02-28T07:23:20;97740.58;;;15.60;45.91
30856;BME280;17570;0.000;0.000;2023-02-28T07:25:47;97745.67;;;15.62;45.79
30856;BME280;17570;0.000;0.000;2023-02-28T07:28:16;97738.78;;;15.61;45.93
30856;BME280;17570;0.000;0.000;2023-02-28T07:30:43;97742.94;;;15.63;45.82
30856;BME280;17570;0.000;0.000;2023-02-28T07:33:11;97747.91;;;15.66;45.78
30856;BME280;17570;0.000;0.000;2023-02-28T07:35:39;97750.27;;;15.69;45.60
30856;BME280;17570;0.000;0.000;2023-02-28T07:38:06;97755.36;;;15.71;45.72
30856;BME280;17570;0.000;0.000;2023-02-28T07:40:36;97755.36;;;15.71;46.08
30856;BME280;17570;0.000;0.000;2023-02-28T07:43:04;97758.13;;;15.69;45.99
30856;BME280;17570;0.000;0.000;2023-02-28T07:45:31;97761.42;;;15.71;46.08
30856;BME280;17570;0.000;0.000;2023-02-28T07:48:00;97769.16;;;15.73;45.82
30856;BME280;17570;0.000;0.000;2023-02-28T07:50:28;97769.84;;;15.75;45.84
30856;BME280;17570;0.000;0.000;2023-02-28T07:53:02;97769.73;;;15.76;45.75
30856;BME280;17570;0.000;0.000;2023-02-28T07:55:26;97773.84;;;15.79;45.77
30856;BME280;17570;0.000;0.000;2023-02-28T07:57:54;97774.81;;;15.78;45.91
30856;BME280;17570;0.000;0.000;2023-02-28T08:00:22;97773.02;;;15.78;45.87
30856;BME280;17570;0.000;0.000;2023-02-28T08:02:49;97770.27;;;15.80;45.90
30856;BME280;17570;0.000;0.000;2023-02-28T08:05:17;97760.61;;;15.80;46.12
30856;BME280;17570;0.000;0.000;2023-02-28T08:07:44;97762.30;;;15.81;45.90
30856;BME280;17570;0.000;0.000;2023-02-28T08:10:15;97755.13;;;15.84;45.96
30856;BME280;17570;0.000;0.000;2023-02-28T08:12:42;97761.19;;;15.94;47.17
30856;BME280;17570;0.000;0.000;2023-02-28T08:15:10;97762.31;;;16.01;47.48
30856;BME280;17570;0.000;0.000;2023-02-28T08:17:37;97760.78;;;15.98;47.36
30856;BME280;17570;0.000;0.000;2023-02-28T08:20:05;97763.81;;;16.03;46.95
30856;BME280;17570;0.000;0.000;2023-02-28T08:22:33;97767.41;;;16.02;46.76
30856;BME280;17570;0.000;0.000;2023-02-28T08:25:00;97777.63;;;16.05;46.77
30856;BME280;17570;0.000;0.000;2023-02-28T08:27:28;97774.03;;;16.06;46.52
30856;BME280;17570;0.000;0.000;2023-02-28T08:29:55;97771.67;;;16.03;46.55
30856;BME280;17570;0.000;0.000;2023-02-28T08:32:23;97766.17;;;16.06;46.41
30856;BME280;17570;0.000;0.000;2023-02-28T08:34:50;97763.70;;;16.05;46.60
30856;BME280;17570;0.000;0.000;2023-02-28T08:37:18;97766.73;;;16.00;46.49
30856;BME280;17570;0.000;0.000;2023-02-28T08:39:45;97769.34;;;16.00;46.29
30856;BME280;17570;0.000;0.000;2023-02-28T08:42:13;97768.53;;;16.00;46.21
30856;BME280;17570;0.000;0.000;2023-02-28T08:44:40;97765.34;;;15.96;46.30
30856;BME280;17570;0.000;0.000;2023-02-28T08:47:08;97774.99;;;15.96;46.17
30856;BME280;17570;0.000;0.000;2023-02-28T08:49:36;97774.99;;;15.96;46.40
30856;BME280;17570;0.000;0.000;2023-02-28T08:52:03;97774.43;;;15.92;46.07
30856;BME280;17570;0.000;0.000;2023-02-28T08:54:31;97776.37;;;15.90;46.44
30856;BME280;17570;0.000;0.000;2023-02-28T08:57:00;97783.77;;;15.85;46.61
30856;BME280;17570;0.000;0.000;2023-02-28T08:59:27;97790.95;;;15.83;46.59
30856;BME280;17570;0.000;0.000;2023-02-28T09:01:55;97794.95;;;15.87;46.22
30856;BME280;17570;0.000;0.000;2023-02-28T09:04:22;97782.14;;;15.94;46.10
30856;BME280;17570;0.000;0.000;2023-02-28T09:06:50;97784.91;;;15.92;46.08
30856;BME280;17570;0.000;0.000;2023-02-28T09:09:17;97791.79;;;15.93;45.77
30856;BME280;17570;0.000;0.000;2023-02-28T09:11:46;97793.16;;;15.88;46.07
30856;BME280;17570;0.000;0.000;2023-02-28T09:14:13;97798.40;;;15.88;46.16
30856;BME280;17570;0.000;0.000;2023-02-28T09:16:43;97793.98;;;15.88;45.92
30856;BME280;17570;0.000;0.000;2023-02-28T09:19:11;97794.70;;;15.90;45.69
30856;BME280;17570;0.000;0.000;2023-02-28T09:21:38;97796.75;;;15.87;45.57
30856;BME280;17570;0.000;0.000;2023-02-28T09:24:07;97801.98;;;15.87;45.55
30856;BME280;17570;0.000;0.000;2023-02-28T09:26:35;97797.01;;;15.84;45.83
30856;BME280;17570;0.000;0.000;2023-02-28T09:29:04;97793.30;;;15.86;45.48
30856;BME280;17570;0.000;0.000;2023-02-28T09:31:33;97796.18;;;15.83;45.53
30856;BME280;17570;0.000;0.000;2023-02-28T09:34:00;97804.72;;;15.85;45.59
30856;BME280;17570;0.000;0.000;2023-02-28T09:36:27;97798.81;;;15.93;45.99
30856;BME280;17570;0.000;0.000;2023-02-28T09:38:56;97798.59;;;16.25;48.53
30856;BME280;17570;0.000;0.000;2023-02-28T09:41:24;97800.13;;;16.37;47.81
30856;BME280;17570;0.000;0.000;2023-02-28T09:43:55;97800.13;;;16.37;47.67
30856;BME280;17570;0.000;0.000;2023-02-28T09:46:35;97795.00;;;16.36;46.94
30856;BME280;17570;0.000;0.000;2023-02-28T09:49:00;97797.35;;;16.29;46.91
30856;BME280;17570;0.000;0.000;2023-02-28T09:51:33;97794.32;;;16.24;46.91
30856;BME280;17570;0.000;0.000;2023-02-28T09:53:59;97792.94;;;16.20;46.36
30856;BME280;17570;0.000;0.000;2023-02-28T09:56:36;97792.52;;;16.15;45.96
30856;BME280;17570;0.000;0.000;2023-02-28T09:59:25;97800.08;;;16.08;46.07
30856;BME280;17570;0.000;0.000;2023-02-28T10:01:50;97796.77;;;15.96;46.26
30856;BME280;17570;0.000;0.000;2023-02-28T10:04:38;97789.98;;;15.84;46.38
30856;BME280;17570;0.000;0.000;2023-02-28T10:06:49;97794.55;;;15.92;46.47
30856;BME280;17570;0.000;0.000;2023-02-28T10:09:17;97783.82;;;15.95;46.03
30856;BME280;17570;0.000;0.000;2023-02-28T10:11:45;97785.03;;;15.81;46.31
30856;BME280;17570;0.000;0.000;2023-02-28T10:14:17;97779.25;;;15.87;46.01
30856;BME280;17570;0.000;0.000;2023-02-28T10:16:56;97782.69;;;15.88;45.68
30856;BME280;17570;0.000;0.000;2023-02-28T10:19:25;97784.89;;;15.83;45.88
30856;BME280;17570;0.000;0.000;2023-02-28T10:24:39;97790.52;;;15.78;46.00
30856;BME280;17570;0.000;0.000;2023-02-28T10:27:13;97782.11;;;15.74;46.03
30856;BME280;17570;0.000;0.000;2023-02-28T10:29:37;97777.84;;;15.73;46.20
30856;BME280;17570;0.000;0.000;2023-02-28T10:32:06;97779.06;;;15.69;46.17
30856;BME280;17570;0.000;0.000;2023-02-28T10:34:35;97777.84;;;15.73;46.19
30856;BME280;17570;0.000;0.000;2023-02-28T10:37:02;97779.62;;;15.73;46.06
30856;BME280;17570;0.000;0.000;2023-02-28T10:39:39;97773.28;;;15.75;46.09
30856;BME280;17570;0.000;0.000;2023-02-28T10:42:18;97768.45;;;15.71;46.06
30856;BME280;17570;0.000;0.000;2023-02-28T10:44:35;97767.77;;;15.69;46.30
30856;BME280;17570;0.000;0.000;2023-02-28T10:47:03;97768.59;;;15.69;46.24
30856;BME280;17570;0.000;0.000;2023-02-28T10:49:30;97765.98;;;15.69;46.25
30856;BME280;17570;0.000;0.000;2023-02-28T10:51:59;97757.30;;;15.69;46.36
30856;BME280;17570;0.000;0.000;2023-02-28T10:54:29;97750.42;;;15.68;46.24
30856;BME280;17570;0.000;0.000;2023-02-28T10:57:14;97752.33;;;15.66;46.31
30856;BME280;17570;0.000;0.000;2023-02-28T10:59:34;97753.30;;;15.65;46.33
30856;BME280;17570;0.000;0.000;2023-02-28T11:02:02;97746.78;;;15.59;46.46
30856;BME280;17570;0.000;0.000;2023-02-28T11:07:04;97738.78;;;15.61;46.60
30856;BME280;17570;0.000;0.000;2023-02-28T11:09:35;97734.09;;;15.54;46.55
30856;BME280;17570;0.000;0.000;2023-02-28T11:12:20;97741.05;;;15.75;48.08
30856;BME280;17570;0.000;0.000;2023-02-28T11:14:40;97740.80;;;15.88;47.80
30856;BME280;17570;0.000;0.000;2023-02-28T11:17:13;97746.86;;;15.88;47.49
30856;BME280;17570;0.000;0.000;2023-02-28T11:19:35;97740.53;;;15.81;47.48
30856;BME280;17570;0.000;0.000;2023-02-28T11:22:01;97747.25;;;15.74;47.46
30856;BME280;17570;0.000;0.000;2023-02-28T11:24:30;97744.37;;;15.77;47.26
30856;BME280;17570;0.000;0.000;2023-02-28T11:27:00;97746.01;;;15.68;47.23
30856;BME280;17570;0.000;0.000;2023-02-28T11:29:33;97747.80;;;15.68;47.39
30856;BME280;17570;0.000;0.000;2023-02-28T11:32:11;97738.56;;;15.64;47.30
30856;BME280;17570;0.000;0.000;2023-02-28T11:34:38;97738.56;;;15.64;47.35
30856;BME280;17570;0.000;0.000;2023-02-28T11:37:10;97739.61;;;15.61;47.29
30856;BME280;17570;0.000;0.000;2023-02-28T11:39:35;97746.41;;;15.64;47.17
30856;BME280;17570;0.000;0.000;2023-02-28T11:42:22;97739.95;;;15.68;46.96
30856;BME280;17570;0.000;0.000;2023-02-28T11:44:58;97736.11;;;15.72;46.87
30856;BME280;17570;0.000;0.000;2023-02-28T11:50:16;97732.88;;;15.59;47.17
30856;BME280;17570;0.000;0.000;2023-02-28T11:52:54;97732.16;;;15.56;47.36
30856;BME280;17570;0.000;0.000;2023-02-28T11:55:29;97728.20;;;15.62;48.05
30856;BME280;17570;0.000;0.000;2023-02-28T12:16:20;97729.20;;;15.80;47.57
30856;BME280;17570;0.000;0.000;2023-02-28T12:18:50;97724.38;;;15.76;47.82
30856;BME280;17570;0.000;0.000;2023-02-28T12:23:57;97719.12;;;15.66;47.70
30856;BME280;17570;0.000;0.000;2023-02-28T12:26:39;97717.62;;;15.64;47.88
30856;BME280;17570;0.000;0.000;2023-02-28T12:29:09;97721.06;;;15.64;47.76
30856;BME280;17570;0.000;0.000;2023-02-28T12:31:36;97717.03;;;15.60;47.79
30856;BME280;17570;0.000;0.000;2023-02-28T12:34:06;97715.83;;;15.64;47.74
30856;BME280;17570;0.000;0.000;2023-02-28T12:36:33;97723.80;;;15.63;47.58
30856;BME280;17570;0.000;0.000;2023-02-28T12:39:07;97728.92;;;15.64;47.49
30856;BME280;17570;0.000;0.000;2023-02-28T12:41:39;97731.64;;;15.63;47.59
30856;BME280;17570;0.000;0.000;2023-02-28T12:44:04;97723.80;;;15.63;47.60
30856;BME280;17570;0.000;0.000;2023-02-28T12:46:36;97728.09;;;15.64;47.58
30856;BME280;17570;0.000;0.000;2023-02-28T12:49:09;97736.31;;;15.59;47.80
30856;BME280;17570;0.000;0.000;2023-02-28T12:51:32;97730.94;;;15.61;47.64
30856;BME280;17570;0.000;0.000;2023-02-28T12:56:42;97728.09;;;15.64;47.52
30856;BME280;17570;0.000;0.000;2023-02-28T12:59:13;97732.98;;;15.57;47.66
30856;BME280;17570;0.000;0.000;2023-02-28T13:01:47;97739.90;;;15.58;47.67
30856;BME280;17570;0.000;0.000;2023-02-28T13:09:29;97721.16;;;15.53;47.74
30856;BME280;17570;0.000;0.000;2023-02-28T13:11:56;97718.95;;;15.48;47.69
30856;BME280;17570;0.000;0.000;2023-02-28T13:14:29;97718.66;;;15.51;47.48
30856;BME280;17570;0.000;0.000;2023-02-28T13:17:02;97726.39;;;15.53;47.18
30856;BME280;17570;0.000;0.000;2023-02-28T13:19:27;97726.23;;;15.45;47.61
30856;BME280;17570;0.000;0.000;2023-02-28T13:21:55;97728.55;;;15.48;47.77
30856;BME280;17570;0.000;0.000;2023-02-28T13:29:38;97724.98;;;15.39;47.67
30856;BME280;17570;0.000;0.000;2023-02-28T13:39:49;97723.58;;;15.35;47.61
30856;BME280;17570;0.000;0.000;2023-02-28T13:47:35;97721.22;;;15.32;47.67
30856;BME280;17570;0.000;0.000;2023-02-28T13:55:41;97712.52;;;15.22;47.88
30856;BME280;17570;0.000;0.000;2023-02-28T13:58:09;97709.20;;;15.20;47.96
30856;BME280;17570;0.000;0.000;2023-02-28T14:03:29;97721.23;;;15.82;51.72
30856;BME280;17570;0.000;0.000;2023-02-28T14:08:44;97721.76;;;15.76;50.49
30856;BME280;17570;0.000;0.000;2023-02-28T14:11:15;97725.89;;;15.69;49.89
30856;BME280;17570;0.000;0.000;2023-02-28T14:13:40;97731.13;;;15.69;49.44
30856;BME280;17570;0.000;0.000;2023-02-28T14:16:17;97736.36;;;15.69;49.15
30856;BME280;17570;0.000;0.000;2023-02-28T14:21:24;97734.97;;;15.65;48.53
30856;BME280;17570;0.000;0.000;2023-02-28T14:37:13;97737.34;;;15.37;48.31
30856;BME280;17570;0.000;0.000;2023-02-28T14:39:40;97748.59;;;15.28;48.30
30856;BME280;17570;0.000;0.000;2023-02-28T14:42:29;97745.02;;;15.29;48.01
30856;BME280;17570;0.000;0.000;2023-02-28T14:44:57;97750.42;;;15.37;47.89
30856;BME280;17570;0.000;0.000;2023-02-28T14:47:28;97744.05;;;15.20;48.13
30856;BME280;17570;0.000;0.000;2023-02-28T14:49:57;97739.36;;;15.24;48.16
30856;BME280;17570;0.000;0.000;2023-02-28T14:52:26;97736.89;;;15.22;48.18
30856;BME280;17570;0.000;0.000;2023-02-28T14:55:01;97739.07;;;15.17;47.99
30856;BME280;17570;0.000;0.000;2023-02-28T14:57:31;97741.11;;;15.14;48.17
30856;BME280;17570;0.000;0.000;2023-02-28T14:59:59;97737.42;;;15.16;47.99
30856;BME280;17570;0.000;0.000;2023-02-28T15:02:29;97734.66;;;15.18;48.04
30856;BME280;17570;0.000;0.000;2023-02-28T15:04:58;97724.59;;;15.13;48.25
30856;BME280;17570;0.000;0.000;2023-02-28T15:07:26;97727.22;;;15.13;48.14